sensor_id;sensor_type;location;lat;lon;timestamp;temperature;humidity
10492;DHT22;5293;51.464;-2.566;2023-04-24T00:00:04;9.30;99.90
10492;DHT22;5293;51.464;-2.566;2023-04-24T00:02:35;9.20;99.90
10492;DHT22;5293;51.464;-2.566;2023-04-24T00:05:04;9.20;99.90
10492;DHT22;5293;51.464;-2.566;2023-04-24T00:07:30;9.10;99.90
10492;DHT22;5293;51.464;-2.566;2023-04-24T00:09:55;9.10;99.90
10492;DHT22;5293;51.464;-2.566;2023-04-24T00:12:21;9.10;99.90
10492;DHT22;5293;51.464;-2.566;2023-04-24T00:14:47;9.10;99.90
10492;DHT22;5293;51.464;-2.566;2023-04-24T00:17:13;9.10;99.90
10492;DHT22;5293;51.464;-2.566;2023-04-24T00:19:38;9.00;99.90
10492;DHT22;5293;51.464;-2.566;2023-04-24T00:22:04;9.00;99.90
10492;DHT22;5293;51.464;-2.566;2023-04-24T00:24:30;9.00;99.90
10492;DHT22;5293;51.464;-2.566;2023-04-24T00:26:56;8.90;99.90
10492;DHT22;5293;51.464;-2.566;2023-04-24T00:29:22;8.90;99.90
10492;DHT22;5293;51.464;-2.566;2023-04-24T00:31:47;8.90;99.90
10492;DHT22;5293;51.464;-2.566;2023-04-24T00:34:13;8.90;99.90
10492;DHT22;5293;51.464;-2.566;2023-04-24T00:36:39;9.00;99.90
10492;DHT22;5293;51.464;-2.566;2023-04-24T00:39:05;8.90;99.90
10492;DHT22;5293;51.464;-2.566;2023-04-24T00:41:34;8.90;99.90
10492;DHT22;5293;51.464;-2.566;2023-04-24T00:44:00;8.90;99.90
10492;DHT22;5293;51.464;-2.566;2023-04-24T00:46:25;8.90;99.90
10492;DHT22;5293;51.464;-2.566;2023-04-24T00:48:51;8.90;99.90
10492;DHT22;5293;51.464;-2.566;2023-04-24T00:51:17;8.80;99.90
10492;DHT22;5293;51.464;-2.566;2023-04-24T00:53:43;8.90;99.90
10492;DHT22;5293;51.464;-2.566;2023-04-24T00:56:09;8.80;99.90
10492;DHT22;5293;51.464;-2.566;2023-04-24T00:58:35;8.70;99.90
10492;DHT22;5293;51.464;-2.566;2023-04-24T01:01:02;8.70;99.90
10492;DHT22;5293;51.464;-2.566;2023-04-24T01:03:29;8.70;99.90
10492;DHT22;5293;51.464;-2.566;2023-04-24T01:05:58;8.70;99.90
10492;DHT22;5293;51.464;-2.566;2023-04-24T01:08:24;8.70;99.90
10492;DHT22;5293;51.464;-2.566;2023-04-24T01:10:52;8.70;99.90
10492;DHT22;5293;51.464;-2.566;2023-04-24T01:13:19;8.70;99.90
10492;DHT22;5293;51.464;-2.566;2023-04-24T01:15:45;8.70;99.90
10492;DHT22;5293;51.464;-2.566;2023-04-24T01:18:11;8.70;99.90
10492;DHT22;5293;51.464;-2.566;2023-04-24T01:20:41;8.80;99.90
10492;DHT22;5293;51.464;-2.566;2023-04-24T01:23:09;8.80;99.90
10492;DHT22;5293;51.464;-2.566;2023-04-24T01:25:36;8.80;99.90
10492;DHT22;5293;51.464;-2.566;2023-04-24T01:28:02;8.80;99.90
10492;DHT22;5293;51.464;-2.566;2023-04-24T01:30:28;8.80;99.90
10492;DHT22;5293;51.464;-2.566;2023-04-24T01:32:55;8.80;99.90
10492;DHT22;5293;51.464;-2.566;2023-04-24T01:35:21;8.80;99.90
10492;DHT22;5293;51.464;-2.566;2023-04-24T01:37:47;8.90;99.90
10492;DHT22;5293;51.464;-2.566;2023-04-24T01:40:13;8.80;99.90
10492;DHT22;5293;51.464;-2.566;2023-04-24T01:42:41;8.70;99.90
10492;DHT22;5293;51.464;-2.566;2023-04-24T01:45:09;8.70;99.90
10492;DHT22;5293;51.464;-2.566;2023-04-24T01:47:35;8.70;99.90
10492;DHT22;5293;51.464;-2.566;2023-04-24T01:50:01;8.60;99.90
10492;DHT22;5293;51.464;-2.566;2023-04-24T01:52:27;8.70;99.90
10492;DHT22;5293;51.464;-2.566;2023-04-24T01:54:56;8.60;99.90
10492;DHT22;5293;51.464;-2.566;2023-04-24T01:57:24;8.50;99.90
10492;DHT22;5293;51.464;-2.566;2023-04-24T01:59:51;8.50;99.90
10492;DHT22;5293;51.464;-2.566;2023-04-24T02:02:16;8.50;99.90
10492;DHT22;5293;51.464;-2.566;2023-04-24T02:04:42;8.50;99.90
10492;DHT22;5293;51.464;-2.566;2023-04-24T02:07:08;8.50;99.90
10492;DHT22;5293;51.464;-2.566;2023-04-24T02:09:33;8.50;99.90
10492;DHT22;5293;51.464;-2.566;2023-04-24T02:11:59;8.40;99.90
10492;DHT22;5293;51.464;-2.566;2023-04-24T02:14:25;8.40;99.90
10492;DHT22;5293;51.464;-2.566;2023-04-24T02:16:51;8.30;99.90
10492;DHT22;5293;51.464;-2.566;2023-04-24T02:19:17;8.40;99.90
10492;DHT22;5293;51.464;-2.566;2023-04-24T02:21:42;8.40;99.90
10492;DHT22;5293;51.464;-2.566;2023-04-24T02:24:08;8.30;99.90
10492;DHT22;5293;51.464;-2.566;2023-04-24T02:26:34;8.30;99.90
10492;DHT22;5293;51.464;-2.566;2023-04-24T02:28:59;8.30;99.90
10492;DHT22;5293;51.464;-2.566;2023-04-24T02:31:25;8.30;99.90
10492;DHT22;5293;51.464;-2.566;2023-04-24T02:33:51;8.40;99.90
10492;DHT22;5293;51.464;-2.566;2023-04-24T02:36:16;8.40;99.90
10492;DHT22;5293;51.464;-2.566;2023-04-24T02:38:42;8.30;99.90
10492;DHT22;5293;51.464;-2.566;2023-04-24T02:41:07;8.30;99.90
10492;DHT22;5293;51.464;-2.566;2023-04-24T02:43:33;8.40;99.90
10492;DHT22;5293;51.464;-2.566;2023-04-24T02:45:59;8.40;99.90
10492;DHT22;5293;51.464;-2.566;2023-04-24T02:48:25;8.40;99.90
10492;DHT22;5293;51.464;-2.566;2023-04-24T02:50:51;8.40;99.90
10492;DHT22;5293;51.464;-2.566;2023-04-24T02:53:16;8.40;99.90
10492;DHT22;5293;51.464;-2.566;2023-04-24T02:55:42;8.40;99.90
10492;DHT22;5293;51.464;-2.566;2023-04-24T02:58:08;8.30;99.90
10492;DHT22;5293;51.464;-2.566;2023-04-24T03:00:34;8.40;99.90
10492;DHT22;5293;51.464;-2.566;2023-04-24T03:02:59;8.30;99.90
10492;DHT22;5293;51.464;-2.566;2023-04-24T03:05:25;8.30;99.90
10492;DHT22;5293;51.464;-2.566;2023-04-24T03:07:52;8.30;99.90
10492;DHT22;5293;51.464;-2.566;2023-04-24T03:10:18;8.40;99.90
10492;DHT22;5293;51.464;-2.566;2023-04-24T03:12:44;8.50;99.90
10492;DHT22;5293;51.464;-2.566;2023-04-24T03:15:10;8.50;99.90
10492;DHT22;5293;51.464;-2.566;2023-04-24T03:17:35;8.60;99.90
10492;DHT22;5293;51.464;-2.566;2023-04-24T03:20:02;8.50;99.90
10492;DHT22;5293;51.464;-2.566;2023-04-24T03:22:30;8.50;99.90
10492;DHT22;5293;51.464;-2.566;2023-04-24T03:24:58;8.50;99.90
10492;DHT22;5293;51.464;-2.566;2023-04-24T03:27:23;8.60;99.90
10492;DHT22;5293;51.464;-2.566;2023-04-24T03:29:49;8.60;99.90
10492;DHT22;5293;51.464;-2.566;2023-04-24T03:32:19;8.60;99.90
10492;DHT22;5293;51.464;-2.566;2023-04-24T03:34:45;8.60;99.90
10492;DHT22;5293;51.464;-2.566;2023-04-24T03:37:10;8.60;99.90
10492;DHT22;5293;51.464;-2.566;2023-04-24T03:39:36;8.60;99.90
10492;DHT22;5293;51.464;-2.566;2023-04-24T03:42:01;8.60;99.90
10492;DHT22;5293;51.464;-2.566;2023-04-24T03:44:27;8.60;99.90
10492;DHT22;5293;51.464;-2.566;2023-04-24T03:46:53;8.60;99.90
10492;DHT22;5293;51.464;-2.566;2023-04-24T03:49:19;8.70;99.90
10492;DHT22;5293;51.464;-2.566;2023-04-24T03:51:44;8.60;99.90
10492;DHT22;5293;51.464;-2.566;2023-04-24T03:54:10;8.70;99.90
10492;DHT22;5293;51.464;-2.566;2023-04-24T03:56:36;8.60;99.90
10492;DHT22;5293;51.464;-2.566;2023-04-24T03:59:02;8.50;99.90
10492;DHT22;5293;51.464;-2.566;2023-04-24T04:01:27;8.60;99.90
10492;DHT22;5293;51.464;-2.566;2023-04-24T04:03:53;8.50;99.90
10492;DHT22;5293;51.464;-2.566;2023-04-24T04:06:19;8.60;99.90
10492;DHT22;5293;51.464;-2.566;2023-04-24T04:08:46;8.60;99.90
10492;DHT22;5293;51.464;-2.566;2023-04-24T04:11:12;8.60;99.90
10492;DHT22;5293;51.464;-2.566;2023-04-24T04:13:38;8.60;99.90
10492;DHT22;5293;51.464;-2.566;2023-04-24T04:16:03;8.60;99.90
10492;DHT22;5293;51.464;-2.566;2023-04-24T04:18:29;8.60;99.90
10492;DHT22;5293;51.464;-2.566;2023-04-24T04:20:55;8.50;99.90
10492;DHT22;5293;51.464;-2.566;2023-04-24T04:23:22;8.60;99.90
10492;DHT22;5293;51.464;-2.566;2023-04-24T04:25:48;8.50;99.90
10492;DHT22;5293;51.464;-2.566;2023-04-24T04:28:15;8.40;99.90
10492;DHT22;5293;51.464;-2.566;2023-04-24T04:30:40;8.40;99.90
10492;DHT22;5293;51.464;-2.566;2023-04-24T04:33:06;8.40;99.90
10492;DHT22;5293;51.464;-2.566;2023-04-24T04:35:33;8.40;99.90
10492;DHT22;5293;51.464;-2.566;2023-04-24T04:37:59;8.40;99.90
10492;DHT22;5293;51.464;-2.566;2023-04-24T04:40:24;8.30;99.90
10492;DHT22;5293;51.464;-2.566;2023-04-24T04:42:50;8.30;99.90
10492;DHT22;5293;51.464;-2.566;2023-04-24T04:45:18;8.30;99.90
10492;DHT22;5293;51.464;-2.566;2023-04-24T04:47:44;8.40;99.90
10492;DHT22;5293;51.464;-2.566;2023-04-24T04:50:10;8.30;99.90
10492;DHT22;5293;51.464;-2.566;2023-04-24T04:52:36;8.40;99.90
10492;DHT22;5293;51.464;-2.566;2023-04-24T04:55:02;8.40;99.90
10492;DHT22;5293;51.464;-2.566;2023-04-24T04:57:28;8.40;99.90
10492;DHT22;5293;51.464;-2.566;2023-04-24T04:59:53;8.30;99.90
10492;DHT22;5293;51.464;-2.566;2023-04-24T05:02:19;8.50;99.90
10492;DHT22;5293;51.464;-2.566;2023-04-24T05:04:45;8.50;99.90
10492;DHT22;5293;51.464;-2.566;2023-04-24T05:07:11;8.50;99.90
10492;DHT22;5293;51.464;-2.566;2023-04-24T05:09:36;8.40;99.90
10492;DHT22;5293;51.464;-2.566;2023-04-24T05:12:03;8.30;99.90
10492;DHT22;5293;51.464;-2.566;2023-04-24T05:14:28;8.30;99.90
10492;DHT22;5293;51.464;-2.566;2023-04-24T05:16:54;8.20;99.90
10492;DHT22;5293;51.464;-2.566;2023-04-24T05:19:20;8.20;99.90
10492;DHT22;5293;51.464;-2.566;2023-04-24T05:21:45;8.20;99.90
10492;DHT22;5293;51.464;-2.566;2023-04-24T05:24:11;8.20;99.90
10492;DHT22;5293;51.464;-2.566;2023-04-24T05:26:37;8.20;99.90
10492;DHT22;5293;51.464;-2.566;2023-04-24T05:29:03;8.20;99.90
10492;DHT22;5293;51.464;-2.566;2023-04-24T05:31:29;8.20;99.90
10492;DHT22;5293;51.464;-2.566;2023-04-24T05:33:55;8.20;99.90
10492;DHT22;5293;51.464;-2.566;2023-04-24T05:36:20;8.20;99.90
10492;DHT22;5293;51.464;-2.566;2023-04-24T05:38:46;8.20;99.90
10492;DHT22;5293;51.464;-2.566;2023-04-24T05:41:12;8.20;99.90
10492;DHT22;5293;51.464;-2.566;2023-04-24T05:43:37;8.20;99.90
10492;DHT22;5293;51.464;-2.566;2023-04-24T05:46:03;8.20;99.90
10492;DHT22;5293;51.464;-2.566;2023-04-24T05:48:29;8.20;99.90
10492;DHT22;5293;51.464;-2.566;2023-04-24T05:50:55;8.10;99.90
10492;DHT22;5293;51.464;-2.566;2023-04-24T05:53:20;8.10;99.90
10492;DHT22;5293;51.464;-2.566;2023-04-24T05:55:47;8.20;99.90
10492;DHT22;5293;51.464;-2.566;2023-04-24T05:58:13;8.30;99.90
10492;DHT22;5293;51.464;-2.566;2023-04-24T06:00:39;8.40;99.90
10492;DHT22;5293;51.464;-2.566;2023-04-24T06:03:08;8.60;99.90
10492;DHT22;5293;51.464;-2.566;2023-04-24T06:05:33;8.80;99.90
10492;DHT22;5293;51.464;-2.566;2023-04-24T06:08:00;8.90;99.90
10492;DHT22;5293;51.464;-2.566;2023-04-24T06:10:25;9.10;99.90
10492;DHT22;5293;51.464;-2.566;2023-04-24T06:12:51;9.30;99.90
10492;DHT22;5293;51.464;-2.566;2023-04-24T06:15:17;9.50;99.90
10492;DHT22;5293;51.464;-2.566;2023-04-24T06:17:43;9.70;99.90
10492;DHT22;5293;51.464;-2.566;2023-04-24T06:20:08;9.80;99.90
10492;DHT22;5293;51.464;-2.566;2023-04-24T06:22:36;9.90;99.90
10492;DHT22;5293;51.464;-2.566;2023-04-24T06:25:01;10.00;99.90
10492;DHT22;5293;51.464;-2.566;2023-04-24T06:27:27;10.10;99.90
10492;DHT22;5293;51.464;-2.566;2023-04-24T06:29:53;10.20;99.90
10492;DHT22;5293;51.464;-2.566;2023-04-24T06:32:23;10.40;99.90
10492;DHT22;5293;51.464;-2.566;2023-04-24T06:34:53;10.60;99.90
10492;DHT22;5293;51.464;-2.566;2023-04-24T06:37:20;10.70;99.90
10492;DHT22;5293;51.464;-2.566;2023-04-24T06:39:46;10.80;99.90
10492;DHT22;5293;51.464;-2.566;2023-04-24T06:42:12;10.80;99.90
10492;DHT22;5293;51.464;-2.566;2023-04-24T06:44:37;10.60;99.90
10492;DHT22;5293;51.464;-2.566;2023-04-24T06:47:09;10.60;99.90
10492;DHT22;5293;51.464;-2.566;2023-04-24T06:49:38;10.60;99.90
10492;DHT22;5293;51.464;-2.566;2023-04-24T06:52:04;10.60;99.90
10492;DHT22;5293;51.464;-2.566;2023-04-24T06:54:30;10.60;99.90
10492;DHT22;5293;51.464;-2.566;2023-04-24T06:56:57;10.50;99.90
10492;DHT22;5293;51.464;-2.566;2023-04-24T06:59:23;10.40;99.90
10492;DHT22;5293;51.464;-2.566;2023-04-24T07:01:49;10.40;99.90
10492;DHT22;5293;51.464;-2.566;2023-04-24T07:04:16;10.50;99.90
10492;DHT22;5293;51.464;-2.566;2023-04-24T07:06:44;10.50;99.90
10492;DHT22;5293;51.464;-2.566;2023-04-24T07:09:11;10.50;99.90
10492;DHT22;5293;51.464;-2.566;2023-04-24T07:11:37;10.40;99.90
10492;DHT22;5293;51.464;-2.566;2023-04-24T07:14:04;10.50;99.90
10492;DHT22;5293;51.464;-2.566;2023-04-24T07:16:30;10.60;99.90
10492;DHT22;5293;51.464;-2.566;2023-04-24T07:18:55;10.60;99.90
10492;DHT22;5293;51.464;-2.566;2023-04-24T07:21:21;10.60;99.90
10492;DHT22;5293;51.464;-2.566;2023-04-24T07:23:46;10.70;99.90
10492;DHT22;5293;51.464;-2.566;2023-04-24T07:26:12;10.80;99.90
10492;DHT22;5293;51.464;-2.566;2023-04-24T07:28:40;10.90;99.90
10492;DHT22;5293;51.464;-2.566;2023-04-24T07:31:06;10.90;99.90
10492;DHT22;5293;51.464;-2.566;2023-04-24T07:33:32;11.00;99.90
10492;DHT22;5293;51.464;-2.566;2023-04-24T07:35:58;11.10;99.90
10492;DHT22;5293;51.464;-2.566;2023-04-24T07:38:24;11.00;99.90
10492;DHT22;5293;51.464;-2.566;2023-04-24T07:40:51;11.10;99.90
10492;DHT22;5293;51.464;-2.566;2023-04-24T07:43:17;11.00;99.90
10492;DHT22;5293;51.464;-2.566;2023-04-24T07:45:43;10.90;99.90
10492;DHT22;5293;51.464;-2.566;2023-04-24T07:48:09;11.00;99.90
10492;DHT22;5293;51.464;-2.566;2023-04-24T07:50:35;11.20;99.90
10492;DHT22;5293;51.464;-2.566;2023-04-24T07:53:01;11.30;99.90
10492;DHT22;5293;51.464;-2.566;2023-04-24T07:55:27;11.30;99.90
10492;DHT22;5293;51.464;-2.566;2023-04-24T07:57:53;11.60;99.90
10492;DHT22;5293;51.464;-2.566;2023-04-24T08:00:19;11.80;99.90
10492;DHT22;5293;51.464;-2.566;2023-04-24T08:02:45;12.00;99.90
10492;DHT22;5293;51.464;-2.566;2023-04-24T08:05:10;12.30;99.90
10492;DHT22;5293;51.464;-2.566;2023-04-24T08:07:36;12.30;99.90
10492;DHT22;5293;51.464;-2.566;2023-04-24T08:10:02;12.30;99.90
10492;DHT22;5293;51.464;-2.566;2023-04-24T08:12:29;12.40;99.90
10492;DHT22;5293;51.464;-2.566;2023-04-24T08:14:54;12.30;99.90
10492;DHT22;5293;51.464;-2.566;2023-04-24T08:17:20;12.20;99.90
10492;DHT22;5293;51.464;-2.566;2023-04-24T08:19:46;12.10;99.90
10492;DHT22;5293;51.464;-2.566;2023-04-24T08:22:16;12.10;99.90
10492;DHT22;5293;51.464;-2.566;2023-04-24T08:24:42;12.00;99.90
10492;DHT22;5293;51.464;-2.566;2023-04-24T08:27:09;12.10;99.90
10492;DHT22;5293;51.464;-2.566;2023-04-24T08:29:35;12.20;99.90
10492;DHT22;5293;51.464;-2.566;2023-04-24T08:32:00;12.20;99.90
10492;DHT22;5293;51.464;-2.566;2023-04-24T08:34:26;12.20;99.90
10492;DHT22;5293;51.464;-2.566;2023-04-24T08:36:51;12.20;99.90
10492;DHT22;5293;51.464;-2.566;2023-04-24T08:39:17;12.00;99.90
10492;DHT22;5293;51.464;-2.566;2023-04-24T08:41:43;11.70;99.90
10492;DHT22;5293;51.464;-2.566;2023-04-24T08:44:11;11.50;99.90
10492;DHT22;5293;51.464;-2.566;2023-04-24T08:46:38;11.30;99.90
10492;DHT22;5293;51.464;-2.566;2023-04-24T08:49:05;11.30;99.90
10492;DHT22;5293;51.464;-2.566;2023-04-24T08:51:31;11.30;99.90
10492;DHT22;5293;51.464;-2.566;2023-04-24T08:53:57;11.30;99.90
10492;DHT22;5293;51.464;-2.566;2023-04-24T08:56:23;11.10;99.90
10492;DHT22;5293;51.464;-2.566;2023-04-24T08:58:51;11.00;99.90
10492;DHT22;5293;51.464;-2.566;2023-04-24T09:01:19;11.00;99.90
10492;DHT22;5293;51.464;-2.566;2023-04-24T09:03:48;11.00;99.90
10492;DHT22;5293;51.464;-2.566;2023-04-24T09:06:14;11.00;99.90
10492;DHT22;5293;51.464;-2.566;2023-04-24T09:08:42;11.00;99.90
10492;DHT22;5293;51.464;-2.566;2023-04-24T09:11:10;11.00;99.90
10492;DHT22;5293;51.464;-2.566;2023-04-24T09:13:37;11.00;99.90
10492;DHT22;5293;51.464;-2.566;2023-04-24T09:16:03;11.00;99.90
10492;DHT22;5293;51.464;-2.566;2023-04-24T09:18:29;10.90;99.90
10492;DHT22;5293;51.464;-2.566;2023-04-24T09:21:06;10.80;99.90
10492;DHT22;5293;51.464;-2.566;2023-04-24T09:23:32;10.80;99.90
10492;DHT22;5293;51.464;-2.566;2023-04-24T09:25:59;10.80;99.90
10492;DHT22;5293;51.464;-2.566;2023-04-24T09:28:29;10.80;99.90
10492;DHT22;5293;51.464;-2.566;2023-04-24T09:31:15;10.80;99.90
10492;DHT22;5293;51.464;-2.566;2023-04-24T09:33:56;10.70;99.90
10492;DHT22;5293;51.464;-2.566;2023-04-24T09:36:33;10.60;99.90
10492;DHT22;5293;51.464;-2.566;2023-04-24T09:39:00;10.60;99.90
10492;DHT22;5293;51.464;-2.566;2023-04-24T09:41:26;10.60;99.90
10492;DHT22;5293;51.464;-2.566;2023-04-24T09:43:56;10.50;99.90
10492;DHT22;5293;51.464;-2.566;2023-04-24T09:46:29;10.50;99.90
10492;DHT22;5293;51.464;-2.566;2023-04-24T09:48:57;10.30;99.90
10492;DHT22;5293;51.464;-2.566;2023-04-24T09:51:36;10.20;99.90
10492;DHT22;5293;51.464;-2.566;2023-04-24T09:54:03;10.10;99.90
10492;DHT22;5293;51.464;-2.566;2023-04-24T09:56:32;10.10;99.90
10492;DHT22;5293;51.464;-2.566;2023-04-24T09:59:05;10.00;99.90
10492;DHT22;5293;51.464;-2.566;2023-04-24T10:01:32;10.00;99.90
10492;DHT22;5293;51.464;-2.566;2023-04-24T10:03:58;9.70;99.90
10492;DHT22;5293;51.464;-2.566;2023-04-24T10:06:32;9.60;99.90
10492;DHT22;5293;51.464;-2.566;2023-04-24T10:08:58;9.60;99.90
10492;DHT22;5293;51.464;-2.566;2023-04-24T10:11:26;9.60;99.90
10492;DHT22;5293;51.464;-2.566;2023-04-24T10:13:52;9.60;99.90
10492;DHT22;5293;51.464;-2.566;2023-04-24T10:16:20;9.40;99.90
10492;DHT22;5293;51.464;-2.566;2023-04-24T10:18:48;9.30;99.90
10492;DHT22;5293;51.464;-2.566;2023-04-24T10:21:14;9.40;99.90
10492;DHT22;5293;51.464;-2.566;2023-04-24T10:23:41;9.50;99.90
10492;DHT22;5293;51.464;-2.566;2023-04-24T10:26:09;9.50;99.90
10492;DHT22;5293;51.464;-2.566;2023-04-24T10:28:36;9.60;99.90
10492;DHT22;5293;51.464;-2.566;2023-04-24T10:31:02;9.40;99.90
10492;DHT22;5293;51.464;-2.566;2023-04-24T10:33:29;9.50;99.90
10492;DHT22;5293;51.464;-2.566;2023-04-24T10:35:56;9.40;99.90
10492;DHT22;5293;51.464;-2.566;2023-04-24T10:38:25;9.30;99.90
10492;DHT22;5293;51.464;-2.566;2023-04-24T10:40:58;9.30;99.90
10492;DHT22;5293;51.464;-2.566;2023-04-24T10:43:33;9.20;99.90
10492;DHT22;5293;51.464;-2.566;2023-04-24T10:46:03;9.30;99.90
10492;DHT22;5293;51.464;-2.566;2023-04-24T10:48:29;9.30;99.90
10492;DHT22;5293;51.464;-2.566;2023-04-24T10:50:55;9.30;99.90
10492;DHT22;5293;51.464;-2.566;2023-04-24T10:53:27;9.20;99.90
10492;DHT22;5293;51.464;-2.566;2023-04-24T10:56:04;9.20;99.90
10492;DHT22;5293;51.464;-2.566;2023-04-24T10:58:39;9.20;99.90
10492;DHT22;5293;51.464;-2.566;2023-04-24T11:01:05;9.30;99.90
10492;DHT22;5293;51.464;-2.566;2023-04-24T11:03:33;9.40;99.90
10492;DHT22;5293;51.464;-2.566;2023-04-24T11:06:06;9.50;99.90
10492;DHT22;5293;51.464;-2.566;2023-04-24T11:08:40;9.60;99.90
10492;DHT22;5293;51.464;-2.566;2023-04-24T11:11:14;9.60;99.90
10492;DHT22;5293;51.464;-2.566;2023-04-24T11:16:37;9.50;99.90
10492;DHT22;5293;51.464;-2.566;2023-04-24T11:19:09;9.60;99.90
10492;DHT22;5293;51.464;-2.566;2023-04-24T11:21:43;9.60;99.90
10492;DHT22;5293;51.464;-2.566;2023-04-24T11:26:53;9.30;99.90
10492;DHT22;5293;51.464;-2.566;2023-04-24T11:29:20;9.40;99.90
10492;DHT22;5293;51.464;-2.566;2023-04-24T11:31:47;9.40;99.90
10492;DHT22;5293;51.464;-2.566;2023-04-24T11:34:17;9.50;99.90
10492;DHT22;5293;51.464;-2.566;2023-04-24T11:36:46;9.50;99.90
10492;DHT22;5293;51.464;-2.566;2023-04-24T11:39:14;9.70;99.90
10492;DHT22;5293;51.464;-2.566;2023-04-24T11:41:40;9.90;99.90
10492;DHT22;5293;51.464;-2.566;2023-04-24T11:44:07;10.00;99.90
10492;DHT22;5293;51.464;-2.566;2023-04-24T11:46:33;10.10;99.90
10492;DHT22;5293;51.464;-2.566;2023-04-24T11:48:59;10.10;99.90
10492;DHT22;5293;51.464;-2.566;2023-04-24T11:51:26;10.10;99.90
10492;DHT22;5293;51.464;-2.566;2023-04-24T11:53:56;10.20;99.90
10492;DHT22;5293;51.464;-2.566;2023-04-24T11:56:23;10.00;99.90
10492;DHT22;5293;51.464;-2.566;2023-04-24T11:58:52;10.10;99.90
10492;DHT22;5293;51.464;-2.566;2023-04-24T12:01:18;10.10;99.90
10492;DHT22;5293;51.464;-2.566;2023-04-24T12:03:48;10.10;99.90
10492;DHT22;5293;51.464;-2.566;2023-04-24T12:06:13;10.10;99.90
10492;DHT22;5293;51.464;-2.566;2023-04-24T12:08:39;10.10;99.90
10492;DHT22;5293;51.464;-2.566;2023-04-24T12:11:06;10.10;99.90
10492;DHT22;5293;51.464;-2.566;2023-04-24T12:13:33;10.30;99.90
10492;DHT22;5293;51.464;-2.566;2023-04-24T12:16:00;10.40;99.90
10492;DHT22;5293;51.464;-2.566;2023-04-24T12:18:26;10.10;99.90
10492;DHT22;5293;51.464;-2.566;2023-04-24T12:20:52;10.10;99.90
10492;DHT22;5293;51.464;-2.566;2023-04-24T12:23:33;10.30;99.90
10492;DHT22;5293;51.464;-2.566;2023-04-24T12:26:03;10.40;99.90
10492;DHT22;5293;51.464;-2.566;2023-04-24T12:28:35;10.40;99.90
10492;DHT22;5293;51.464;-2.566;2023-04-24T12:31:02;10.50;99.90
10492;DHT22;5293;51.464;-2.566;2023-04-24T12:33:28;10.30;99.90
10492;DHT22;5293;51.464;-2.566;2023-04-24T12:35:57;10.10;99.90
10492;DHT22;5293;51.464;-2.566;2023-04-24T12:38:26;10.20;99.90
10492;DHT22;5293;51.464;-2.566;2023-04-24T12:41:06;10.30;99.90
10492;DHT22;5293;51.464;-2.566;2023-04-24T12:43:32;10.30;99.90
10492;DHT22;5293;51.464;-2.566;2023-04-24T12:45:58;10.40;99.90
10492;DHT22;5293;51.464;-2.566;2023-04-24T12:48:28;10.60;99.90
10492;DHT22;5293;51.464;-2.566;2023-04-24T12:50:54;10.80;99.90
10492;DHT22;5293;51.464;-2.566;2023-04-24T12:53:20;10.90;99.90
10492;DHT22;5293;51.464;-2.566;2023-04-24T12:55:46;10.80;99.90
10492;DHT22;5293;51.464;-2.566;2023-04-24T12:58:20;10.80;99.90
10492;DHT22;5293;51.464;-2.566;2023-04-24T13:00:47;10.60;99.90
10492;DHT22;5293;51.464;-2.566;2023-04-24T13:03:13;10.80;99.90
10492;DHT22;5293;51.464;-2.566;2023-04-24T13:05:39;10.70;99.90
10492;DHT22;5293;51.464;-2.566;2023-04-24T13:08:05;10.70;99.90
10492;DHT22;5293;51.464;-2.566;2023-04-24T13:10:31;10.60;99.90
10492;DHT22;5293;51.464;-2.566;2023-04-24T13:12:57;10.50;99.90
10492;DHT22;5293;51.464;-2.566;2023-04-24T13:15:22;10.50;99.90
10492;DHT22;5293;51.464;-2.566;2023-04-24T13:17:48;10.50;99.90
10492;DHT22;5293;51.464;-2.566;2023-04-24T13:20:14;10.50;99.90
10492;DHT22;5293;51.464;-2.566;2023-04-24T13:22:40;10.30;99.90
10492;DHT22;5293;51.464;-2.566;2023-04-24T13:25:06;10.40;99.90
10492;DHT22;5293;51.464;-2.566;2023-04-24T13:27:32;10.40;99.90
10492;DHT22;5293;51.464;-2.566;2023-04-24T13:29:58;10.50;99.90
10492;DHT22;5293;51.464;-2.566;2023-04-24T13:32:24;10.50;99.90
10492;DHT22;5293;51.464;-2.566;2023-04-24T13:34:50;10.60;99.90
10492;DHT22;5293;51.464;-2.566;2023-04-24T13:37:16;10.60;99.90
10492;DHT22;5293;51.464;-2.566;2023-04-24T13:39:42;10.80;99.90
10492;DHT22;5293;51.464;-2.566;2023-04-24T13:42:08;10.80;99.90
10492;DHT22;5293;51.464;-2.566;2023-04-24T13:44:34;11.00;99.90
10492;DHT22;5293;51.464;-2.566;2023-04-24T13:46:59;11.20;99.90
10492;DHT22;5293;51.464;-2.566;2023-04-24T13:49:26;11.20;99.90
10492;DHT22;5293;51.464;-2.566;2023-04-24T13:51:53;11.30;99.90
10492;DHT22;5293;51.464;-2.566;2023-04-24T13:54:19;11.20;99.90
10492;DHT22;5293;51.464;-2.566;2023-04-24T13:56:45;11.10;99.90
10492;DHT22;5293;51.464;-2.566;2023-04-24T13:59:12;11.20;99.90
10492;DHT22;5293;51.464;-2.566;2023-04-24T14:01:38;11.10;99.90
10492;DHT22;5293;51.464;-2.566;2023-04-24T14:04:04;11.10;99.90
10492;DHT22;5293;51.464;-2.566;2023-04-24T14:06:30;10.80;99.90
10492;DHT22;5293;51.464;-2.566;2023-04-24T14:08:56;10.60;99.90
10492;DHT22;5293;51.464;-2.566;2023-04-24T14:11:22;10.40;99.90
10492;DHT22;5293;51.464;-2.566;2023-04-24T14:13:48;10.30;99.90
10492;DHT22;5293;51.464;-2.566;2023-04-24T14:16:14;10.10;99.90
10492;DHT22;5293;51.464;-2.566;2023-04-24T14:18:40;10.20;99.90
10492;DHT22;5293;51.464;-2.566;2023-04-24T14:21:05;10.20;99.90
10492;DHT22;5293;51.464;-2.566;2023-04-24T14:23:31;10.20;99.90
10492;DHT22;5293;51.464;-2.566;2023-04-24T14:25:58;10.00;99.90
10492;DHT22;5293;51.464;-2.566;2023-04-24T14:28:24;10.00;99.90
10492;DHT22;5293;51.464;-2.566;2023-04-24T14:30:50;9.90;99.90
10492;DHT22;5293;51.464;-2.566;2023-04-24T14:33:17;9.80;99.90
10492;DHT22;5293;51.464;-2.566;2023-04-24T14:35:43;10.00;99.90
10492;DHT22;5293;51.464;-2.566;2023-04-24T14:38:09;9.90;99.90
10492;DHT22;5293;51.464;-2.566;2023-04-24T14:40:35;9.90;99.90
10492;DHT22;5293;51.464;-2.566;2023-04-24T14:43:01;9.90;99.90
10492;DHT22;5293;51.464;-2.566;2023-04-24T14:45:27;9.80;99.90
10492;DHT22;5293;51.464;-2.566;2023-04-24T14:47:53;9.60;99.90
10492;DHT22;5293;51.464;-2.566;2023-04-24T14:50:19;9.50;99.90
10492;DHT22;5293;51.464;-2.566;2023-04-24T14:52:45;9.50;99.90
10492;DHT22;5293;51.464;-2.566;2023-04-24T14:55:11;9.40;99.90
10492;DHT22;5293;51.464;-2.566;2023-04-24T14:57:37;9.30;99.90
10492;DHT22;5293;51.464;-2.566;2023-04-24T15:00:06;9.30;99.90
10492;DHT22;5293;51.464;-2.566;2023-04-24T15:02:34;9.10;99.90
10492;DHT22;5293;51.464;-2.566;2023-04-24T15:05:02;9.10;99.90
10492;DHT22;5293;51.464;-2.566;2023-04-24T15:07:28;9.00;99.90
10492;DHT22;5293;51.464;-2.566;2023-04-24T15:09:54;8.90;99.90
10492;DHT22;5293;51.464;-2.566;2023-04-24T15:12:20;8.80;99.90
10492;DHT22;5293;51.464;-2.566;2023-04-24T15:14:46;8.80;99.90
10492;DHT22;5293;51.464;-2.566;2023-04-24T15:17:12;8.80;99.90
10492;DHT22;5293;51.464;-2.566;2023-04-24T15:19:37;8.70;99.90
10492;DHT22;5293;51.464;-2.566;2023-04-24T15:22:03;8.60;99.90
10492;DHT22;5293;51.464;-2.566;2023-04-24T15:24:29;8.60;99.90
10492;DHT22;5293;51.464;-2.566;2023-04-24T15:26:54;8.60;99.90
10492;DHT22;5293;51.464;-2.566;2023-04-24T15:29:20;8.60;99.90
10492;DHT22;5293;51.464;-2.566;2023-04-24T15:31:46;8.60;99.90
10492;DHT22;5293;51.464;-2.566;2023-04-24T15:34:11;8.60;99.90
10492;DHT22;5293;51.464;-2.566;2023-04-24T15:36:37;8.60;99.90
10492;DHT22;5293;51.464;-2.566;2023-04-24T15:39:03;8.50;99.90
10492;DHT22;5293;51.464;-2.566;2023-04-24T15:41:29;8.50;99.90